Mount Olive, Texas
Current Conditions -  °F | °C
As of 2:15 AM on Saturday 25 Oct 2014 (Local Time) from KT20 Reporting Station
Thunderstorm Thunderstorm  
Wind Chill: 64°   Ceiling: Unl
Heat Index: 64°   Visibility: 10mi
Dew Point: 60°   Wind: 0mph
Humidity: 85%   Direction: NA
Pressure: 30.14"   Gusts: NA
Location:  29.4258°N, 97.1461°W
Report Text: KT20 250715Z AUTO 00000KT 10SM VCTS CLR 18/16 A3014 RMK AO2 T01800155
Loading
Personal Weather Stations






























Interactive Weather Map
Tropical Storm Tracking
New forecast layout! Learn more

10-Day Weather Forecast

Advertisements
Track Severe Weather on mobile